sensor_id;sensor_type;location;lat;lon;timestamp;pressure;altitude;pressure_sealevel;temperature;humidity
12793;BME280;6460;42.684;23.260;2023-04-21T05:57:54;94245.44;;;11.98;76.99
12793;BME280;6460;42.684;23.260;2023-04-21T06:00:22;94221.03;;;12.24;76.75
12793;BME280;6460;42.684;23.260;2023-04-21T06:02:49;94221.59;;;12.47;74.75
12793;BME280;6460;42.684;23.260;2023-04-21T06:05:16;94222.97;;;12.24;75.57
12793;BME280;6460;42.684;23.260;2023-04-21T06:07:43;94220.50;;;12.04;76.92
12793;BME280;6460;42.684;23.260;2023-04-21T06:10:12;94235.22;;;12.17;76.38
12793;BME280;6460;42.684;23.260;2023-04-21T06:12:40;94221.75;;;12.14;77.69
12793;BME280;6460;42.684;23.260;2023-04-21T06:15:09;94219.19;;;12.35;76.31
12793;BME280;6460;42.684;23.260;2023-04-21T06:17:36;94226.72;;;12.66;75.07
12793;BME280;6460;42.684;23.260;2023-04-21T06:20:04;94231.25;;;12.55;74.67
12793;BME280;6460;42.684;23.260;2023-04-21T06:22:32;94219.88;;;12.83;74.03
12793;BME280;6460;42.684;23.260;2023-04-21T06:24:59;94225.50;;;12.60;75.38
12793;BME280;6460;42.684;23.260;2023-04-21T06:27:26;94226.75;;;12.73;74.55
12793;BME280;6460;42.684;23.260;2023-04-21T06:29:53;94217.34;;;13.18;72.83
12793;BME280;6460;42.684;23.260;2023-04-21T06:32:23;94225.75;;;13.06;73.26
12793;BME280;6460;42.684;23.260;2023-04-21T06:34:55;94221.25;;;13.32;73.92
12793;BME280;6460;42.684;23.260;2023-04-21T06:37:36;94233.03;;;12.99;72.86
12793;BME280;6460;42.684;23.260;2023-04-21T06:40:04;94221.59;;;13.16;72.95
12793;BME280;6460;42.684;23.260;2023-04-21T06:42:31;94207.44;;;12.64;74.48
12793;BME280;6460;42.684;23.260;2023-04-21T06:55:44;94206.31;;;13.69;71.07
12793;BME280;6460;42.684;23.260;2023-04-21T07:53:58;94214.81;;;14.10;69.46
12793;BME280;6460;42.684;23.260;2023-04-21T07:56:25;94208.66;;;14.66;67.43
12793;BME280;6460;42.684;23.260;2023-04-21T08:29:56;94200.91;;;14.72;65.86
12793;BME280;6460;42.684;23.260;2023-04-21T09:06:09;94175.34;;;16.22;62.64
12793;BME280;6460;42.684;23.260;2023-04-21T09:08:38;94188.50;;;16.27;60.97
12793;BME280;6460;42.684;23.260;2023-04-21T09:11:07;94171.66;;;16.02;61.13
12793;BME280;6460;42.684;23.260;2023-04-21T09:13:35;94170.63;;;16.33;59.56
12793;BME280;6460;42.684;23.260;2023-04-21T09:16:03;94170.63;;;16.33;59.48
12793;BME280;6460;42.684;23.260;2023-04-21T09:18:31;94166.38;;;16.73;56.59
12793;BME280;6460;42.684;23.260;2023-04-21T09:21:12;94156.84;;;16.91;55.50
12793;BME280;6460;42.684;23.260;2023-04-21T09:28:46;94149.28;;;17.10;56.48
12793;BME280;6460;42.684;23.260;2023-04-21T09:31:15;94142.63;;;17.14;55.20
12793;BME280;6460;42.684;23.260;2023-04-21T09:33:46;94133.50;;;17.58;54.89
12793;BME280;6460;42.684;23.260;2023-04-21T09:36:21;94139.19;;;17.40;54.53
12793;BME280;6460;42.684;23.260;2023-04-21T09:38:54;94151.81;;;17.24;55.66
12793;BME280;6460;42.684;23.260;2023-04-21T09:43:57;94153.22;;;16.71;55.97
12793;BME280;6460;42.684;23.260;2023-04-21T09:46:30;94145.56;;;16.97;55.53
12793;BME280;6460;42.684;23.260;2023-04-21T09:48:59;94140.56;;;17.52;53.52
12793;BME280;6460;42.684;23.260;2023-04-21T09:51:29;94140.19;;;17.80;52.77
12793;BME280;6460;42.684;23.260;2023-04-21T09:53:58;94132.34;;;16.99;54.35
12793;BME280;6460;42.684;23.260;2023-04-21T09:56:27;94130.50;;;17.79;51.87
12793;BME280;6460;42.684;23.260;2023-04-21T10:06:42;94110.69;;;17.79;50.65
12793;BME280;6460;42.684;23.260;2023-04-21T10:09:12;94125.84;;;17.80;48.79
12793;BME280;6460;42.684;23.260;2023-04-21T10:11:40;94119.13;;;17.61;48.58
12793;BME280;6460;42.684;23.260;2023-04-21T10:14:07;94129.28;;;17.54;49.92
12793;BME280;6460;42.684;23.260;2023-04-21T10:16:35;94124.69;;;17.51;50.83
12793;BME280;6460;42.684;23.260;2023-04-21T10:19:21;94131.91;;;17.04;52.73
12793;BME280;6460;42.684;23.260;2023-04-21T10:21:50;94112.25;;;16.92;53.33
12793;BME280;6460;42.684;23.260;2023-04-21T10:24:17;94117.34;;;16.90;52.53
12793;BME280;6460;42.684;23.260;2023-04-21T10:26:44;94122.28;;;16.65;51.43
12793;BME280;6460;42.684;23.260;2023-04-21T10:29:12;94120.28;;;17.03;49.18
12793;BME280;6460;42.684;23.260;2023-04-21T10:31:50;94118.13;;;17.48;48.40
12793;BME280;6460;42.684;23.260;2023-04-21T10:34:21;94118.81;;;16.95;52.08
12793;BME280;6460;42.684;23.260;2023-04-21T10:37:16;94121.22;;;16.52;54.03
12793;BME280;6460;42.684;23.260;2023-04-21T10:39:54;94119.28;;;16.53;54.69
12793;BME280;6460;42.684;23.260;2023-04-21T10:42:29;94121.75;;;16.77;51.21
12793;BME280;6460;42.684;23.260;2023-04-21T10:45:10;94116.56;;;16.53;52.29
12793;BME280;6460;42.684;23.260;2023-04-21T10:47:41;94118.75;;;16.68;52.08
12793;BME280;6460;42.684;23.260;2023-04-21T10:50:17;94126.19;;;16.94;51.89
12793;BME280;6460;42.684;23.260;2023-04-21T10:52:51;94126.09;;;16.71;53.10
12793;BME280;6460;42.684;23.260;2023-04-21T10:55:19;94131.59;;;16.64;53.45
12793;BME280;6460;42.684;23.260;2023-04-21T10:57:46;94114.84;;;16.69;52.17
12793;BME280;6460;42.684;23.260;2023-04-21T11:00:18;94110.44;;;16.82;51.23
12793;BME280;6460;42.684;23.260;2023-04-21T11:02:52;94117.78;;;17.16;50.50
12793;BME280;6460;42.684;23.260;2023-04-21T11:05:26;94115.34;;;17.25;48.80
12793;BME280;6460;42.684;23.260;2023-04-21T11:08:02;94106.63;;;17.37;48.62
12793;BME280;6460;42.684;23.260;2023-04-21T11:10:40;94105.81;;;17.40;46.41
12793;BME280;6460;42.684;23.260;2023-04-21T11:13:07;94102.09;;;17.57;46.54
12793;BME280;6460;42.684;23.260;2023-04-21T11:15:35;94100.31;;;17.74;50.13
12793;BME280;6460;42.684;23.260;2023-04-21T11:18:02;94090.47;;;17.53;51.62
12793;BME280;6460;42.684;23.260;2023-04-21T11:20:29;94096.38;;;17.21;50.69
12793;BME280;6460;42.684;23.260;2023-04-21T11:22:56;94099.78;;;17.29;49.73
12793;BME280;6460;42.684;23.260;2023-04-21T11:25:24;94087.41;;;17.24;47.89
12793;BME280;6460;42.684;23.260;2023-04-21T11:27:52;94092.88;;;17.21;47.23
12793;BME280;6460;42.684;23.260;2023-04-21T11:30:20;94097.59;;;17.17;47.59
12793;BME280;6460;42.684;23.260;2023-04-21T11:32:53;94097.34;;;17.34;49.42
12793;BME280;6460;42.684;23.260;2023-04-21T11:35:20;94083.44;;;17.32;50.59
12793;BME280;6460;42.684;23.260;2023-04-21T11:37:49;94088.78;;;17.36;50.54
12793;BME280;6460;42.684;23.260;2023-04-21T11:40:16;94102.34;;;17.66;50.63
12793;BME280;6460;42.684;23.260;2023-04-21T11:42:45;94120.75;;;17.25;49.23
12793;BME280;6460;42.684;23.260;2023-04-21T11:45:16;94113.59;;;17.08;48.41
12793;BME280;6460;42.684;23.260;2023-04-21T11:47:43;94100.94;;;16.98;48.54
12793;BME280;6460;42.684;23.260;2023-04-21T11:50:10;94101.41;;;16.92;48.64
12793;BME280;6460;42.684;23.260;2023-04-21T11:52:37;94103.00;;;16.90;49.02
12793;BME280;6460;42.684;23.260;2023-04-21T11:55:10;94109.69;;;16.78;49.35
12793;BME280;6460;42.684;23.260;2023-04-21T11:57:38;94109.63;;;16.85;49.13
12793;BME280;6460;42.684;23.260;2023-04-21T12:00:09;94111.28;;;16.76;48.91
12793;BME280;6460;42.684;23.260;2023-04-21T12:02:36;94116.69;;;16.79;47.57
12793;BME280;6460;42.684;23.260;2023-04-21T12:05:05;94115.38;;;16.57;49.33
12793;BME280;6460;42.684;23.260;2023-04-21T12:07:33;94122.34;;;16.58;50.22
12793;BME280;6460;42.684;23.260;2023-04-21T12:10:01;94112.13;;;16.69;48.71
12793;BME280;6460;42.684;23.260;2023-04-21T12:12:29;94110.19;;;16.70;49.12
12793;BME280;6460;42.684;23.260;2023-04-21T12:14:55;94108.09;;;16.84;48.56
12793;BME280;6460;42.684;23.260;2023-04-21T12:17:24;94107.09;;;17.02;48.38
12793;BME280;6460;42.684;23.260;2023-04-21T12:19:50;94108.09;;;17.15;49.08
12793;BME280;6460;42.684;23.260;2023-04-21T12:22:17;94108.41;;;17.20;48.84
12793;BME280;6460;42.684;23.260;2023-04-21T12:24:45;94106.44;;;17.51;47.83
12793;BME280;6460;42.684;23.260;2023-04-21T12:27:12;94098.94;;;17.85;47.70
12793;BME280;6460;42.684;23.260;2023-04-21T12:29:40;94096.63;;;18.30;46.95
12793;BME280;6460;42.684;23.260;2023-04-21T12:32:07;94105.25;;;18.25;45.43
12793;BME280;6460;42.684;23.260;2023-04-21T12:34:35;94109.19;;;18.24;44.46
12793;BME280;6460;42.684;23.260;2023-04-21T12:37:03;94112.56;;;18.09;44.31
12793;BME280;6460;42.684;23.260;2023-04-21T12:39:30;94105.97;;;18.29;42.40
12793;BME280;6460;42.684;23.260;2023-04-21T12:41:57;94106.88;;;18.23;43.77
12793;BME280;6460;42.684;23.260;2023-04-21T12:44:24;94107.69;;;17.96;45.42
12793;BME280;6460;42.684;23.260;2023-04-21T12:46:51;94111.13;;;18.01;46.86
12793;BME280;6460;42.684;23.260;2023-04-21T12:49:18;94108.00;;;18.02;46.52
12793;BME280;6460;42.684;23.260;2023-04-21T12:51:47;94094.91;;;17.93;46.29
12793;BME280;6460;42.684;23.260;2023-04-21T12:54:15;94104.09;;;18.03;45.70
12793;BME280;6460;42.684;23.260;2023-04-21T12:56:41;94098.22;;;17.81;46.30
12793;BME280;6460;42.684;23.260;2023-04-21T12:59:09;94099.16;;;17.44;46.60
12793;BME280;6460;42.684;23.260;2023-04-21T13:01:36;94098.34;;;17.74;46.66
12793;BME280;6460;42.684;23.260;2023-04-21T13:04:04;94095.03;;;17.63;47.54
12793;BME280;6460;42.684;23.260;2023-04-21T13:06:31;94093.75;;;17.94;48.43
12793;BME280;6460;42.684;23.260;2023-04-21T13:08:59;94085.03;;;18.03;46.49
12793;BME280;6460;42.684;23.260;2023-04-21T13:11:27;94087.00;;;18.88;43.47
12793;BME280;6460;42.684;23.260;2023-04-21T13:13:57;94079.03;;;18.97;42.30
12793;BME280;6460;42.684;23.260;2023-04-21T13:16:24;94079.63;;;18.89;42.53
12793;BME280;6460;42.684;23.260;2023-04-21T13:18:51;94078.97;;;18.81;43.07
12793;BME280;6460;42.684;23.260;2023-04-21T13:21:17;94076.44;;;19.10;42.21
12793;BME280;6460;42.684;23.260;2023-04-21T13:23:44;94081.81;;;19.14;42.63
12793;BME280;6460;42.684;23.260;2023-04-21T13:26:13;94070.25;;;19.26;41.80
12793;BME280;6460;42.684;23.260;2023-04-21T13:28:40;94082.81;;;19.03;40.39
12793;BME280;6460;42.684;23.260;2023-04-21T13:31:07;94071.44;;;18.69;43.22
12793;BME280;6460;42.684;23.260;2023-04-21T13:33:35;94075.53;;;19.17;42.90
12793;BME280;6460;42.684;23.260;2023-04-21T13:36:02;94075.38;;;19.24;41.30
12793;BME280;6460;42.684;23.260;2023-04-21T13:38:30;94071.69;;;19.14;41.36
12793;BME280;6460;42.684;23.260;2023-04-21T13:40:57;94076.06;;;18.92;41.38
12793;BME280;6460;42.684;23.260;2023-04-21T13:43:27;94071.59;;;18.62;42.31
12793;BME280;6460;42.684;23.260;2023-04-21T13:45:54;94074.50;;;18.52;43.10
12793;BME280;6460;42.684;23.260;2023-04-21T13:48:20;94064.97;;;18.40;42.64
12793;BME280;6460;42.684;23.260;2023-04-21T13:50:48;94066.00;;;18.69;42.75
12793;BME280;6460;42.684;23.260;2023-04-21T13:53:15;94066.91;;;18.82;43.57
12793;BME280;6460;42.684;23.260;2023-04-21T13:55:42;94056.88;;;19.15;42.47
12793;BME280;6460;42.684;23.260;2023-04-21T13:58:09;94062.03;;;19.65;41.24
12793;BME280;6460;42.684;23.260;2023-04-21T14:00:38;94059.09;;;19.72;41.18
12793;BME280;6460;42.684;23.260;2023-04-21T14:03:05;94057.75;;;19.80;41.32
12793;BME280;6460;42.684;23.260;2023-04-21T14:05:49;94054.84;;;19.71;41.68
12793;BME280;6460;42.684;23.260;2023-04-21T14:08:16;94059.94;;;19.53;41.59
12793;BME280;6460;42.684;23.260;2023-04-21T14:10:43;94060.56;;;19.61;41.61
12793;BME280;6460;42.684;23.260;2023-04-21T14:13:10;94055.84;;;19.45;40.71
12793;BME280;6460;42.684;23.260;2023-04-21T14:15:38;94036.38;;;20.24;38.88
12793;BME280;6460;42.684;23.260;2023-04-21T14:18:05;94037.59;;;20.39;39.81
12793;BME280;6460;42.684;23.260;2023-04-21T14:20:32;94038.09;;;20.63;38.32
12793;BME280;6460;42.684;23.260;2023-04-21T14:22:59;94037.25;;;20.78;36.94
12793;BME280;6460;42.684;23.260;2023-04-21T14:25:27;94032.66;;;20.75;37.58
12793;BME280;6460;42.684;23.260;2023-04-21T14:27:54;94038.31;;;20.68;38.10
12793;BME280;6460;42.684;23.260;2023-04-21T14:30:21;94036.22;;;20.31;38.31
12793;BME280;6460;42.684;23.260;2023-04-21T14:32:49;94034.66;;;20.46;37.84
12793;BME280;6460;42.684;23.260;2023-04-21T14:35:16;94032.72;;;21.00;37.45
12793;BME280;6460;42.684;23.260;2023-04-21T14:37:43;94028.66;;;21.46;35.81
12793;BME280;6460;42.684;23.260;2023-04-21T14:40:10;94027.78;;;21.37;36.16
12793;BME280;6460;42.684;23.260;2023-04-21T14:42:37;94028.44;;;21.41;34.77
12793;BME280;6460;42.684;23.260;2023-04-21T14:45:07;94035.84;;;21.78;34.46
12793;BME280;6460;42.684;23.260;2023-04-21T14:47:34;94027.94;;;22.05;34.12
12793;BME280;6460;42.684;23.260;2023-04-21T14:50:02;94033.53;;;21.64;35.35
12793;BME280;6460;42.684;23.260;2023-04-21T14:52:30;94038.38;;;21.73;35.68
12793;BME280;6460;42.684;23.260;2023-04-21T14:54:56;94035.19;;;21.49;37.38
12793;BME280;6460;42.684;23.260;2023-04-21T14:57:24;94034.72;;;21.13;40.05
12793;BME280;6460;42.684;23.260;2023-04-21T14:59:52;94037.81;;;21.27;39.84
12793;BME280;6460;42.684;23.260;2023-04-21T15:02:19;94029.06;;;21.20;40.87
12793;BME280;6460;42.684;23.260;2023-04-21T15:04:47;94033.91;;;21.28;42.05
12793;BME280;6460;42.684;23.260;2023-04-21T15:07:15;94034.88;;;21.47;40.19
12793;BME280;6460;42.684;23.260;2023-04-21T15:09:42;94034.72;;;21.88;38.50
12793;BME280;6460;42.684;23.260;2023-04-21T15:12:10;94040.22;;;21.88;38.43
12793;BME280;6460;42.684;23.260;2023-04-21T15:14:38;94036.28;;;21.64;38.73
12793;BME280;6460;42.684;23.260;2023-04-21T15:17:05;94035.31;;;21.45;39.12
12793;BME280;6460;42.684;23.260;2023-04-21T15:19:32;94040.66;;;21.49;40.08
12793;BME280;6460;42.684;23.260;2023-04-21T15:21:58;94042.94;;;21.13;39.32
12793;BME280;6460;42.684;23.260;2023-04-21T15:24:27;94042.22;;;20.83;40.17
12793;BME280;6460;42.684;23.260;2023-04-21T15:26:53;94039.91;;;20.53;41.34
12793;BME280;6460;42.684;23.260;2023-04-21T15:29:20;94042.53;;;20.28;42.37
12793;BME280;6460;42.684;23.260;2023-04-21T15:31:47;94058.06;;;19.98;41.13
12793;BME280;6460;42.684;23.260;2023-04-21T15:34:14;94050.44;;;19.77;40.20
12793;BME280;6460;42.684;23.260;2023-04-21T15:36:41;94052.81;;;19.59;41.06
12793;BME280;6460;42.684;23.260;2023-04-21T15:39:07;94058.78;;;19.70;40.39
12793;BME280;6460;42.684;23.260;2023-04-21T15:41:39;94056.72;;;19.58;40.85
12793;BME280;6460;42.684;23.260;2023-04-21T15:44:06;94052.44;;;19.41;40.51
12793;BME280;6460;42.684;23.260;2023-04-21T15:46:33;94056.19;;;19.47;40.47
12793;BME280;6460;42.684;23.260;2023-04-21T15:49:00;94059.28;;;19.65;40.95
12793;BME280;6460;42.684;23.260;2023-04-21T15:51:27;94052.53;;;19.70;40.41
12793;BME280;6460;42.684;23.260;2023-04-21T15:53:54;94050.66;;;19.67;40.76
12793;BME280;6460;42.684;23.260;2023-04-21T15:56:21;94054.84;;;19.71;40.84
12793;BME280;6460;42.684;23.260;2023-04-21T15:59:06;94053.31;;;19.70;40.89
12793;BME280;6460;42.684;23.260;2023-04-21T16:01:33;94057.59;;;19.87;40.17
12793;BME280;6460;42.684;23.260;2023-04-21T16:03:59;94059.53;;;20.03;38.96
12793;BME280;6460;42.684;23.260;2023-04-21T16:06:26;94044.25;;;20.22;38.27
12793;BME280;6460;42.684;23.260;2023-04-21T16:08:55;94058.06;;;20.31;38.50
12793;BME280;6460;42.684;23.260;2023-04-21T16:11:21;94057.56;;;20.20;39.00
12793;BME280;6460;42.684;23.260;2023-04-21T16:13:48;94068.31;;;19.94;39.57
12793;BME280;6460;42.684;23.260;2023-04-21T16:16:17;94061.16;;;19.84;40.12
12793;BME280;6460;42.684;23.260;2023-04-21T16:18:44;94059.88;;;19.89;39.71
12793;BME280;6460;42.684;23.260;2023-04-21T16:21:11;94059.28;;;19.81;40.52
12793;BME280;6460;42.684;23.260;2023-04-21T16:23:38;94051.53;;;19.80;41.30
12793;BME280;6460;42.684;23.260;2023-04-21T16:26:05;94054.16;;;19.51;42.30
12793;BME280;6460;42.684;23.260;2023-04-21T16:28:33;94059.09;;;19.56;43.00
12793;BME280;6460;42.684;23.260;2023-04-21T16:31:00;94054.66;;;19.46;42.32
12793;BME280;6460;42.684;23.260;2023-04-21T16:33:28;94048.66;;;19.35;42.36
12793;BME280;6460;42.684;23.260;2023-04-21T16:35:55;94055.53;;;19.23;42.98
12793;BME280;6460;42.684;23.260;2023-04-21T16:38:22;94059.09;;;19.20;44.04
12793;BME280;6460;42.684;23.260;2023-04-21T16:40:49;94052.34;;;19.09;45.10
12793;BME280;6460;42.684;23.260;2023-04-21T16:43:16;94064.72;;;19.13;44.57
12793;BME280;6460;42.684;23.260;2023-04-21T16:45:43;94059.72;;;18.72;46.04
12793;BME280;6460;42.684;23.260;2023-04-21T16:48:10;94058.09;;;18.55;46.87
12793;BME280;6460;42.684;23.260;2023-04-21T16:50:38;94065.72;;;18.21;48.46
12793;BME280;6460;42.684;23.260;2023-04-21T16:53:06;94068.09;;;17.72;50.10
12793;BME280;6460;42.684;23.260;2023-04-21T16:55:33;94064.47;;;17.52;51.08
12793;BME280;6460;42.684;23.260;2023-04-21T16:57:59;94075.94;;;17.40;52.01
12793;BME280;6460;42.684;23.260;2023-04-21T17:00:26;94074.56;;;17.28;52.20
12793;BME280;6460;42.684;23.260;2023-04-21T17:02:54;94071.97;;;17.18;52.50
12793;BME280;6460;42.684;23.260;2023-04-21T17:05:22;94074.81;;;17.07;53.16
12793;BME280;6460;42.684;23.260;2023-04-21T17:07:50;94075.25;;;17.06;53.00
12793;BME280;6460;42.684;23.260;2023-04-21T17:10:17;94075.25;;;17.06;53.06
12793;BME280;6460;42.684;23.260;2023-04-21T17:16:34;94066.75;;;16.36;54.43
12793;BME280;6460;42.684;23.260;2023-04-21T17:19:03;94087.44;;;16.23;55.10
12793;BME280;6460;42.684;23.260;2023-04-21T17:21:30;94084.53;;;16.00;55.96
12793;BME280;6460;42.684;23.260;2023-04-21T17:23:58;94082.72;;;16.30;54.95
12793;BME280;6460;42.684;23.260;2023-04-21T17:26:25;94090.19;;;16.16;56.06
12793;BME280;6460;42.684;23.260;2023-04-21T17:28:52;94097.03;;;16.27;55.35
12793;BME280;6460;42.684;23.260;2023-04-21T17:31:19;94088.47;;;16.36;55.26
12793;BME280;6460;42.684;23.260;2023-04-21T17:33:46;94090.44;;;16.32;55.32
12793;BME280;6460;42.684;23.260;2023-04-21T17:36:13;94098.50;;;15.98;56.35
12793;BME280;6460;42.684;23.260;2023-04-21T17:38:41;94097.09;;;15.79;57.38
12793;BME280;6460;42.684;23.260;2023-04-21T17:41:09;94102.16;;;15.77;57.65
12793;BME280;6460;42.684;23.260;2023-04-21T17:43:36;94102.06;;;15.88;57.34
12793;BME280;6460;42.684;23.260;2023-04-21T17:46:04;94109.25;;;16.05;56.92
12793;BME280;6460;42.684;23.260;2023-04-21T17:48:32;94111.81;;;15.78;57.77
12793;BME280;6460;42.684;23.260;2023-04-21T17:59:17;94123.22;;;15.56;60.20
12793;BME280;6460;42.684;23.260;2023-04-21T18:01:45;94125.84;;;15.66;59.87
12793;BME280;6460;42.684;23.260;2023-04-21T18:04:13;94124.25;;;15.72;59.00
12793;BME280;6460;42.684;23.260;2023-04-21T18:06:41;94127.75;;;15.73;59.00
12793;BME280;6460;42.684;23.260;2023-04-21T18:09:11;94131.63;;;15.68;59.43
12793;BME280;6460;42.684;23.260;2023-04-21T18:35:00;94163.88;;;14.51;65.37
12793;BME280;6460;42.684;23.260;2023-04-21T18:37:34;94164.66;;;14.45;65.67
12793;BME280;6460;42.684;23.260;2023-04-21T18:40:02;94167.31;;;14.55;65.76
12793;BME280;6460;42.684;23.260;2023-04-21T18:42:34;94170.00;;;14.59;64.94
12793;BME280;6460;42.684;23.260;2023-04-21T18:45:15;94167.72;;;14.47;65.45
12793;BME280;6460;42.684;23.260;2023-04-21T18:48:03;94164.25;;;14.25;65.43
12793;BME280;6460;42.684;23.260;2023-04-21T19:11:07;94177.78;;;14.32;65.25
12793;BME280;6460;42.684;23.260;2023-04-21T19:13:48;94180.09;;;13.98;66.40
12793;BME280;6460;42.684;23.260;2023-04-21T19:16:29;94176.22;;;14.24;65.77
12793;BME280;6460;42.684;23.260;2023-04-21T19:18:57;94174.69;;;14.16;66.63
12793;BME280;6460;42.684;23.260;2023-04-21T19:21:24;94180.09;;;14.16;67.60
12793;BME280;6460;42.684;23.260;2023-04-21T19:23:54;94176.63;;;14.15;67.38
12793;BME280;6460;42.684;23.260;2023-04-21T19:26:29;94181.25;;;13.79;68.54
12793;BME280;6460;42.684;23.260;2023-04-21T19:29:10;94187.78;;;13.78;67.92
12793;BME280;6460;42.684;23.260;2023-04-21T19:31:39;94182.78;;;13.91;67.64
12793;BME280;6460;42.684;23.260;2023-04-21T19:34:29;94188.59;;;13.90;67.35
12793;BME280;6460;42.684;23.260;2023-04-21T19:40:41;94188.19;;;13.91;66.47
12793;BME280;6460;42.684;23.260;2023-04-21T19:43:13;94192.84;;;13.84;67.13
12793;BME280;6460;42.684;23.260;2023-04-21T19:46:03;94188.97;;;13.81;66.99
12793;BME280;6460;42.684;23.260;2023-04-21T19:48:44;94190.09;;;13.66;67.72
12793;BME280;6460;42.684;23.260;2023-04-21T19:51:25;94186.28;;;13.77;67.54
12793;BME280;6460;42.684;23.260;2023-04-21T20:07:44;94192.81;;;13.59;69.01
12793;BME280;6460;42.684;23.260;2023-04-21T20:10:13;94192.41;;;13.46;69.72
12793;BME280;6460;42.684;23.260;2023-04-21T20:12:42;94191.97;;;13.37;70.16
12793;BME280;6460;42.684;23.260;2023-04-21T22:05:15;94261.44;;;11.10;82.98
12793;BME280;6460;42.684;23.260;2023-04-21T22:07:42;94259.72;;;11.28;82.77
12793;BME280;6460;42.684;23.260;2023-04-21T22:10:16;94259.59;;;11.18;82.76
12793;BME280;6460;42.684;23.260;2023-04-21T22:12:43;94260.84;;;11.27;82.45
12793;BME280;6460;42.684;23.260;2023-04-21T22:15:10;94267.44;;;11.33;81.27
12793;BME280;6460;42.684;23.260;2023-04-21T22:31:23;94276.41;;;11.11;82.91
12793;BME280;6460;42.684;23.260;2023-04-21T22:33:50;94278.44;;;11.21;82.08
12793;BME280;6460;42.684;23.260;2023-04-21T22:36:17;94279.44;;;11.06;82.43
12793;BME280;6460;42.684;23.260;2023-04-21T22:42:11;94280.78;;;10.93;83.18
12793;BME280;6460;42.684;23.260;2023-04-21T22:44:52;94283.56;;;11.00;83.39
12793;BME280;6460;42.684;23.260;2023-04-21T22:51:09;94302.63;;;10.88;83.73
